Time;durP1;ratioP1;P1;durP2;ratioP2;P2;SDS_P1;SDS_P2;PMS_P1;PMS_P2;Temp;Humidity;BMP_temperature;BMP_pressure;BME280_temperature;BME280_humidity;BME280_pressure;Samples;Min_cycle;Max_cycle;Signal;HPM_P1;HPM_P2
2022/01/02 00:01:27;;;;;;;21.77;13.80;;;5.80;99.50;;;;;;5062966;28;20475;-47
2022/01/02 00:04:01;;;;;;;25.50;16.30;;;5.70;99.90;;;;;;5050925;28;20479;-46
2022/01/02 00:06:32;;;;;;;30.07;13.77;;;5.50;99.90;;;;;;5064966;28;20529;-47
2022/01/02 00:09:04;;;;;;;26.93;15.10;;;5.60;99.90;;;;;;5061002;28;20763;-47
2022/01/02 00:11:31;;;;;;;26.33;12.73;;;5.60;99.90;;;;;;5056189;28;21006;-46
2022/01/02 00:14:07;;;;;;;19.47;11.93;;;5.60;99.90;;;;;;5068213;28;20488;-47
2022/01/02 00:16:35;;;;;;;27.23;14.63;;;5.50;99.90;;;;;;5050509;28;20999;-47
2022/01/02 00:19:16;;;;;;;21.20;14.37;;;5.30;99.90;;;;;;5062543;28;20481;-55
2022/01/02 00:21:45;;;;;;;24.93;14.63;;;5.40;99.90;;;;;;5066502;28;20882;-47
2022/01/02 00:24:17;;;;;;;26.33;14.17;;;5.40;99.90;;;;;;5063071;28;20478;-47
2022/01/02 00:26:46;;;;;;;20.10;12.53;;;5.50;99.90;;;;;;5065939;28;20840;-47
2022/01/02 00:29:14;;;;;;;17.40;12.37;;;5.50;99.90;;;;;;5062820;28;20468;-47
2022/01/02 00:31:41;;;;;;;23.93;14.30;;;5.50;99.90;;;;;;5067256;28;20479;-47
2022/01/02 00:34:10;;;;;;;23.87;13.87;;;5.50;99.90;;;;;;5062571;28;20476;-51
2022/01/02 00:36:38;;;;;;;22.90;13.60;;;5.50;99.90;;;;;;5061790;28;20497;-47
2022/01/02 00:39:06;;;;;;;23.03;13.90;;;5.60;99.90;;;;;;5091397;27;20466;-47
2022/01/02 00:41:37;;;;;;;23.43;13.43;;;5.60;99.90;;;;;;5064252;27;20480;-47
2022/01/02 00:44:12;;;;;;;18.93;13.10;;;5.60;99.90;;;;;;5059154;28;20481;-47
2022/01/02 00:46:49;;;;;;;24.47;13.77;;;5.50;99.90;;;;;;5056744;27;20489;-47
2022/01/02 00:49:24;;;;;;;23.97;13.10;;;5.40;99.90;;;;;;5087490;27;20518;-47
2022/01/02 00:51:56;;;;;;;17.93;11.87;;;5.40;99.90;;;;;;5066265;28;20479;-48
2022/01/02 00:54:28;;;;;;;18.40;11.90;;;5.40;99.90;;;;;;5066236;28;20967;-46
2022/01/02 00:56:58;;;;;;;26.93;12.87;;;5.40;99.90;;;;;;5063926;28;20476;-46
2022/01/02 00:59:28;;;;;;;25.03;13.90;;;5.40;99.90;;;;;;5066449;28;20484;-47
2022/01/02 01:02:02;;;;;;;22.87;13.50;;;5.40;99.90;;;;;;5067253;28;20922;-46
2022/01/02 01:04:32;;;;;;;22.37;13.13;;;5.30;99.90;;;;;;5065049;28;20849;-46
2022/01/02 01:07:04;;;;;;;28.00;15.83;;;5.30;99.90;;;;;;5061811;27;20495;-46
2022/01/02 01:09:32;;;;;;;19.47;12.70;;;5.10;99.70;;;;;;5081997;27;20490;-47
2022/01/02 01:11:59;;;;;;;22.37;11.50;;;5.00;99.90;;;;;;5063310;28;20544;-47
2022/01/02 01:14:27;;;;;;;22.93;12.03;;;5.00;99.90;;;;;;5068714;28;20945;-47
2022/01/02 01:16:54;;;;;;;26.70;14.97;;;4.80;99.40;;;;;;5066795;28;20515;-46
2022/01/02 01:19:22;;;;;;;24.43;13.63;;;4.80;99.90;;;;;;5067160;28;20962;-47
2022/01/02 01:21:51;;;;;;;19.30;13.43;;;4.90;99.90;;;;;;5066461;28;20491;-46
2022/01/02 01:24:18;;;;;;;22.10;13.87;;;4.90;99.90;;;;;;5070447;28;20481;-47
2022/01/02 01:26:48;;;;;;;19.63;13.43;;;5.00;99.90;;;;;;5066351;28;20480;-47
2022/01/02 01:29:14;;;;;;;22.33;13.90;;;5.00;99.90;;;;;;5068166;28;20490;-47
2022/01/02 01:31:41;;;;;;;20.03;12.00;;;5.10;99.90;;;;;;5079899;27;20542;-47
2022/01/02 01:34:08;;;;;;;18.73;11.60;;;5.10;99.90;;;;;;5054508;28;20483;-47
2022/01/02 01:36:34;;;;;;;27.43;13.40;;;5.20;99.90;;;;;;5095965;27;20532;-47
2022/01/02 01:39:03;;;;;;;20.47;12.80;;;5.30;99.90;;;;;;5077319;27;20948;-47
2022/01/02 01:41:34;;;;;;;21.67;14.37;;;5.30;99.90;;;;;;5059162;28;20482;-47
2022/01/02 01:44:21;;;;;;;21.60;12.30;;;5.30;99.90;;;;;;5057338;28;21018;-47
2022/01/02 01:46:51;;;;;;;23.73;14.00;;;5.30;99.90;;;;;;5063819;28;20479;-47
2022/01/02 01:49:19;;;;;;;21.33;13.63;;;5.30;99.90;;;;;;5063705;28;20490;-47
2022/01/02 01:51:47;;;;;;;21.43;14.10;;;5.40;99.90;;;;;;5066505;28;20483;-47
2022/01/02 01:54:15;;;;;;;20.57;14.20;;;5.30;99.90;;;;;;5065540;28;20483;-47
2022/01/02 01:56:42;;;;;;;23.07;12.00;;;5.30;99.90;;;;;;5061733;28;20537;-47
2022/01/02 01:59:09;;;;;;;20.03;14.20;;;5.30;99.90;;;;;;5061194;28;20477;-47
2022/01/02 02:01:35;;;;;;;24.90;14.73;;;5.30;99.90;;;;;;5030512;28;20470;-47
2022/01/02 02:04:02;;;;;;;26.27;14.53;;;5.30;99.90;;;;;;5048586;28;20485;-47
2022/01/02 02:06:29;;;;;;;17.93;13.47;;;5.30;99.90;;;;;;5046398;28;20488;-47
2022/01/02 02:08:59;;;;;;;23.00;13.87;;;5.30;99.90;;;;;;5042732;28;20481;-46
2022/01/02 02:11:28;;;;;;;19.17;13.20;;;5.30;99.90;;;;;;5042582;28;21052;-47
2022/01/02 02:13:56;;;;;;;19.27;12.40;;;5.20;99.60;;;;;;5045245;28;20479;-46
2022/01/02 02:16:23;;;;;;;19.57;12.10;;;5.20;99.80;;;;;;5051212;28;20979;-47
2022/01/02 02:18:50;;;;;;;17.13;12.20;;;5.20;99.70;;;;;;5046932;28;20515;-48
2022/01/02 02:21:28;;;;;;;20.77;14.30;;;5.20;99.80;;;;;;5052187;28;20488;-47
2022/01/02 02:23:57;;;;;;;19.57;12.97;;;5.20;99.90;;;;;;5041850;28;20477;-47
2022/01/02 02:26:24;;;;;;;18.60;12.23;;;5.20;99.80;;;;;;5050891;28;20479;-47
2022/01/02 02:28:51;;;;;;;20.77;11.50;;;5.10;99.90;;;;;;5045995;28;20472;-47
2022/01/02 02:31:17;;;;;;;21.00;12.90;;;5.10;99.60;;;;;;5046523;28;20934;-46
2022/01/02 02:33:44;;;;;;;15.70;11.03;;;5.10;99.70;;;;;;5046604;28;20475;-47
2022/01/02 02:36:11;;;;;;;18.27;12.43;;;5.10;99.70;;;;;;5052159;28;20488;-47
2022/01/02 02:38:40;;;;;;;13.83;10.53;;;5.10;99.90;;;;;;5047273;28;20484;-47
2022/01/02 02:41:07;;;;;;;19.77;12.00;;;5.10;99.80;;;;;;5019770;28;21155;-46
2022/01/02 02:43:40;;;;;;;16.43;11.83;;;5.10;99.90;;;;;;5047269;28;20476;-47
2022/01/02 02:49:00;;;;;;;19.60;11.70;;;5.00;99.40;;;;;;5052383;28;20904;-46
2022/01/02 02:51:34;;;;;;;13.80;10.30;;;5.00;99.60;;;;;;5044495;28;20521;-47
2022/01/02 02:54:02;;;;;;;15.30;10.67;;;5.00;99.60;;;;;;5049180;28;20480;-47
2022/01/02 02:56:40;;;;;;;14.67;11.17;;;4.90;99.50;;;;;;5047765;28;20479;-47
2022/01/02 02:59:07;;;;;;;20.60;12.53;;;4.80;99.90;;;;;;5049731;28;20987;-46
2022/01/02 03:01:33;;;;;;;17.73;12.27;;;4.90;99.90;;;;;;5034071;28;20543;-46
2022/01/02 03:04:00;;;;;;;21.23;12.00;;;4.90;99.90;;;;;;5064362;28;20495;-47
2022/01/02 03:06:27;;;;;;;21.90;11.10;;;4.90;99.90;;;;;;5050467;28;20480;-47
2022/01/02 03:08:54;;;;;;;19.13;11.57;;;4.80;99.90;;;;;;5051634;28;20490;-46
2022/01/02 03:11:23;;;;;;;17.57;11.47;;;4.80;99.90;;;;;;5052123;28;20520;-47
2022/01/02 03:13:52;;;;;;;20.17;11.93;;;4.80;99.90;;;;;;5046548;28;20607;-46
2022/01/02 03:16:19;;;;;;;16.27;10.87;;;4.90;99.90;;;;;;5045494;28;20480;-47
2022/01/02 03:18:46;;;;;;;13.47;10.73;;;4.90;99.90;;;;;;5048457;28;20521;-46
2022/01/02 03:21:13;;;;;;;15.93;9.87;;;5.00;99.90;;;;;;5047839;28;20487;-47
2022/01/02 03:23:40;;;;;;;13.13;9.93;;;5.00;99.90;;;;;;5049978;28;20469;-46
2022/01/02 03:26:07;;;;;;;15.40;10.07;;;5.00;99.90;;;;;;5046533;28;20560;-47
2022/01/02 03:28:36;;;;;;;14.80;9.53;;;5.10;99.90;;;;;;5047483;28;20484;-46
2022/01/02 03:31:03;;;;;;;14.30;11.67;;;5.10;99.90;;;;;;5054854;28;20481;-46
2022/01/02 03:33:30;;;;;;;13.20;10.43;;;5.20;99.90;;;;;;5051760;28;20472;-46
2022/01/02 03:35:57;;;;;;;16.70;9.80;;;5.20;99.90;;;;;;5047886;28;20546;-47
2022/01/02 03:38:23;;;;;;;17.40;11.40;;;5.20;99.90;;;;;;5046279;28;20476;-46
2022/01/02 03:40:50;;;;;;;19.27;12.03;;;5.20;99.90;;;;;;5047123;28;20511;-46
2022/01/02 03:43:17;;;;;;;15.30;10.53;;;5.20;99.90;;;;;;5041167;28;20550;-46
2022/01/02 03:45:45;;;;;;;19.50;11.83;;;5.20;99.90;;;;;;5046395;28;20937;-47
2022/01/02 03:48:11;;;;;;;17.50;10.40;;;5.20;99.90;;;;;;5047903;28;20546;-47
2022/01/02 03:50:38;;;;;;;14.13;10.63;;;5.20;99.90;;;;;;5071764;28;20539;-46
2022/01/02 03:53:06;;;;;;;16.23;10.30;;;5.10;99.70;;;;;;5066114;28;20533;-46
2022/01/02 03:55:33;;;;;;;12.03;9.70;;;5.10;99.90;;;;;;5077810;27;20539;-46
2022/01/02 03:58:00;;;;;;;16.83;10.90;;;5.20;99.90;;;;;;5075086;27;20877;-47
2022/01/02 04:00:27;;;;;;;17.33;9.60;;;5.20;99.90;;;;;;5064924;28;21120;-46
2022/01/02 04:02:55;;;;;;;18.03;9.77;;;5.30;99.90;;;;;;5077717;28;20488;-46
2022/01/02 04:05:22;;;;;;;19.57;9.80;;;5.30;99.90;;;;;;5061285;28;20482;-46
2022/01/02 04:07:48;;;;;;;16.30;9.40;;;5.30;99.90;;;;;;5089883;28;20483;-46
2022/01/02 04:10:18;;;;;;;16.33;10.13;;;5.40;99.90;;;;;;5064129;28;20568;-47
2022/01/02 04:12:45;;;;;;;15.70;11.07;;;5.40;99.90;;;;;;5079841;28;21175;-46
2022/01/02 04:15:14;;;;;;;16.33;9.43;;;5.50;99.90;;;;;;5092493;28;20482;-47
2022/01/02 04:17:41;;;;;;;16.30;11.00;;;5.50;99.90;;;;;;5066415;28;20993;-47
2022/01/02 04:20:11;;;;;;;15.27;11.10;;;5.50;99.90;;;;;;5086135;28;20489;-46
2022/01/02 04:22:38;;;;;;;18.50;10.80;;;5.50;99.90;;;;;;5068564;28;20487;-47
2022/01/02 04:25:06;;;;;;;15.50;11.43;;;5.60;99.90;;;;;;5092708;28;20484;-47
2022/01/02 04:27:33;;;;;;;23.10;11.33;;;5.60;99.90;;;;;;5069146;28;20493;-46
2022/01/02 04:30:00;;;;;;;13.47;11.07;;;5.60;99.90;;;;;;5080980;28;20525;-46
2022/01/02 04:32:27;;;;;;;15.07;10.20;;;5.60;99.90;;;;;;5086906;28;20470;-46
2022/01/02 04:34:54;;;;;;;15.77;10.53;;;5.60;99.90;;;;;;5056372;28;20484;-47
2022/01/02 04:37:22;;;;;;;13.57;10.13;;;5.60;99.90;;;;;;5080978;28;20493;-46
2022/01/02 04:39:49;;;;;;;16.37;10.00;;;5.60;99.90;;;;;;5078076;28;20990;-46
2022/01/02 04:42:15;;;;;;;14.33;9.87;;;5.60;99.90;;;;;;5075443;28;20483;-46
2022/01/02 04:44:42;;;;;;;14.47;9.83;;;5.70;99.90;;;;;;5064489;28;20536;-46
2022/01/02 04:47:09;;;;;;;21.30;10.80;;;5.70;99.90;;;;;;5091054;28;20493;-46
2022/01/02 04:49:36;;;;;;;20.70;11.73;;;5.60;99.90;;;;;;5071612;27;20873;-47
2022/01/02 04:52:03;;;;;;;16.17;10.10;;;5.50;99.90;;;;;;5086576;28;20880;-46
2022/01/02 04:54:31;;;;;;;14.43;10.07;;;5.50;99.90;;;;;;5060722;28;22235;-46
2022/01/02 04:56:58;;;;;;;14.33;9.87;;;5.50;99.90;;;;;;5085637;28;20487;-46
2022/01/02 04:59:24;;;;;;;10.67;8.90;;;5.50;99.90;;;;;;5078133;28;20529;-46
2022/01/02 05:01:51;;;;;;;16.03;9.20;;;5.50;99.90;;;;;;5067177;28;20519;-46
2022/01/02 05:04:19;;;;;;;18.90;10.57;;;5.60;99.90;;;;;;5077278;28;20490;-47
2022/01/02 05:06:45;;;;;;;16.53;11.23;;;5.60;99.90;;;;;;5075415;28;20546;-46
2022/01/02 05:09:12;;;;;;;17.23;11.30;;;5.70;99.90;;;;;;5079972;28;20483;-46
2022/01/02 05:11:40;;;;;;;15.33;10.60;;;5.80;99.90;;;;;;5076960;28;20959;-46
2022/01/02 05:14:07;;;;;;;19.20;11.20;;;5.80;99.90;;;;;;5075610;28;20542;-46
2022/01/02 05:16:33;;;;;;;18.73;10.37;;;5.80;99.90;;;;;;5076840;28;20480;-46
2022/01/02 05:19:00;;;;;;;13.80;8.70;;;5.90;99.90;;;;;;5071117;28;20494;-46
2022/01/02 05:21:27;;;;;;;13.17;8.80;;;5.90;99.90;;;;;;5076445;27;20486;-46
2022/01/02 05:23:54;;;;;;;16.20;11.40;;;5.90;99.90;;;;;;5088082;27;20989;-46
2022/01/02 05:26:20;;;;;;;18.73;11.50;;;6.00;99.90;;;;;;5074690;28;21046;-46
2022/01/02 05:28:48;;;;;;;19.77;10.63;;;6.00;99.90;;;;;;5076242;28;20878;-47
2022/01/02 05:31:15;;;;;;;19.43;9.43;;;6.00;99.90;;;;;;5080163;28;20508;-46
2022/01/02 05:33:42;;;;;;;12.47;9.13;;;6.00;99.90;;;;;;5079613;28;20496;-46
2022/01/02 05:36:08;;;;;;;14.30;10.67;;;6.10;99.90;;;;;;5076123;28;20485;-46
2022/01/02 05:38:35;;;;;;;17.73;10.10;;;6.10;99.90;;;;;;5080145;28;20920;-46
2022/01/02 05:41:02;;;;;;;16.40;10.70;;;6.10;99.90;;;;;;5076844;28;20471;-46
2022/01/02 05:43:29;;;;;;;14.47;9.47;;;6.10;99.90;;;;;;5069101;28;20605;-46
2022/01/02 05:46:03;;;;;;;16.03;9.63;;;6.20;99.90;;;;;;5104084;28;21159;-46
2022/01/02 05:48:31;;;;;;;13.37;9.67;;;6.20;99.90;;;;;;5074243;28;20591;-46
2022/01/02 05:50:59;;;;;;;8.63;5.23;;;6.30;99.90;;;;;;5075239;28;20575;-46
2022/01/02 05:53:25;;;;;;;12.10;9.77;;;6.30;99.90;;;;;;5080021;28;20478;-47
2022/01/02 05:55:52;;;;;;;13.53;9.17;;;6.50;99.90;;;;;;5082987;28;20483;-46
2022/01/02 05:58:19;;;;;;;11.20;8.23;;;6.50;99.90;;;;;;5073448;28;20488;-46
2022/01/02 06:00:45;;;;;;;12.37;8.70;;;6.50;99.90;;;;;;5077399;28;20473;-46
2022/01/02 06:03:13;;;;;;;8.90;7.73;;;6.50;99.90;;;;;;5077305;28;20485;-47
2022/01/02 06:05:40;;;;;;;8.50;6.37;;;6.50;99.90;;;;;;5078513;28;20902;-47
2022/01/02 06:08:08;;;;;;;12.97;9.13;;;6.50;99.90;;;;;;5076073;28;20546;-47
2022/01/02 06:10:35;;;;;;;16.47;8.70;;;6.70;99.90;;;;;;5075336;28;20929;-47
2022/01/02 06:13:02;;;;;;;10.30;7.57;;;6.70;99.90;;;;;;5078177;28;20476;-47
2022/01/02 06:15:29;;;;;;;11.67;8.80;;;6.80;99.90;;;;;;5071631;28;20500;-47
2022/01/02 06:17:55;;;;;;;14.70;10.60;;;6.80;99.90;;;;;;5085861;28;20944;-46
2022/01/02 06:20:23;;;;;;;12.47;9.90;;;6.80;99.90;;;;;;5075407;28;20875;-47
2022/01/02 06:22:53;;;;;;;13.57;9.70;;;6.90;99.90;;;;;;5078082;28;20493;-46
2022/01/02 06:25:20;;;;;;;15.37;9.63;;;6.90;99.90;;;;;;5081360;28;20485;-47
2022/01/02 06:27:47;;;;;;;12.83;10.30;;;7.00;99.90;;;;;;5082859;28;20531;-46
2022/01/02 06:30:13;;;;;;;25.47;10.27;;;7.00;99.90;;;;;;5079063;28;20486;-47
2022/01/02 06:32:40;;;;;;;13.77;9.53;;;7.00;99.90;;;;;;5082958;28;20487;-46
2022/01/02 06:35:08;;;;;;;9.70;8.70;;;7.00;99.90;;;;;;5080397;28;20483;-47
2022/01/02 06:37:36;;;;;;;12.03;8.80;;;6.90;99.90;;;;;;5070246;28;20496;-46
2022/01/02 06:40:03;;;;;;;10.70;8.70;;;7.00;99.90;;;;;;5092106;28;20496;-47
2022/01/02 06:42:30;;;;;;;12.73;9.80;;;7.10;99.90;;;;;;5078790;28;20517;-46
2022/01/02 06:44:57;;;;;;;17.07;10.20;;;7.10;99.90;;;;;;5080267;28;21081;-47
2022/01/02 06:47:24;;;;;;;13.73;9.77;;;7.10;99.90;;;;;;5070553;28;20503;-47
2022/01/02 06:49:50;;;;;;;14.70;10.90;;;7.30;99.90;;;;;;5089910;28;21095;-47
2022/01/02 06:52:17;;;;;;;8.43;7.63;;;7.70;99.90;;;;;;5076721;28;20484;-48
2022/01/02 06:54:45;;;;;;;10.73;9.17;;;8.00;99.90;;;;;;5099815;27;20885;-48
2022/01/02 06:57:12;;;;;;;11.10;9.33;;;8.30;99.90;;;;;;5104208;27;20502;-48
2022/01/02 06:59:39;;;;;;;11.57;8.80;;;8.50;99.90;;;;;;5087833;27;20478;-47
2022/01/02 07:02:06;;;;;;;10.87;8.27;;;8.70;99.90;;;;;;5083755;28;20550;-47
2022/01/02 07:04:33;;;;;;;8.73;7.20;;;8.70;99.90;;;;;;5076778;28;20542;-47
2022/01/02 07:06:59;;;;;;;8.60;6.63;;;8.80;99.90;;;;;;5077623;28;20492;-47
2022/01/02 07:09:29;;;;;;;10.93;8.03;;;8.90;99.90;;;;;;5076407;28;20486;-46
2022/01/02 07:11:57;;;;;;;8.53;6.83;;;9.00;99.90;;;;;;5080752;28;20531;-48
2022/01/02 07:14:26;;;;;;;12.80;7.50;;;9.10;99.90;;;;;;5076196;28;20485;-47
2022/01/02 07:16:53;;;;;;;9.77;7.27;;;9.10;99.90;;;;;;5079531;28;21303;-47
2022/01/02 07:19:20;;;;;;;8.57;6.83;;;9.10;99.90;;;;;;5079495;28;20907;-48
2022/01/02 07:21:47;;;;;;;6.93;6.23;;;9.20;99.90;;;;;;5083644;28;20509;-47
2022/01/02 07:24:13;;;;;;;10.63;7.57;;;9.20;99.90;;;;;;5080475;28;20472;-48
2022/01/02 07:26:40;;;;;;;10.10;7.43;;;9.20;99.90;;;;;;5078244;28;20482;-47
2022/01/02 07:29:08;;;;;;;8.33;7.40;;;9.30;99.90;;;;;;5081084;27;20481;-46
2022/01/02 07:31:35;;;;;;;9.03;6.80;;;9.30;99.90;;;;;;5078937;28;20475;-47
2022/01/02 07:34:02;;;;;;;6.30;4.80;;;9.30;99.90;;;;;;5078234;28;20483;-48
2022/01/02 07:36:28;;;;;;;6.80;5.60;;;9.40;99.90;;;;;;5077651;28;21311;-48
2022/01/02 07:38:55;;;;;;;5.60;4.90;;;9.40;99.90;;;;;;5079349;28;20541;-47
2022/01/02 07:41:22;;;;;;;8.40;6.13;;;9.40;99.90;;;;;;5075209;28;20525;-47
2022/01/02 07:43:49;;;;;;;8.13;7.30;;;9.40;99.90;;;;;;5076462;28;20957;-47
2022/01/02 07:46:17;;;;;;;6.77;5.93;;;9.40;99.90;;;;;;5072551;27;20506;-48
2022/01/02 07:48:44;;;;;;;6.90;6.20;;;9.40;99.90;;;;;;5068932;27;20486;-47
2022/01/02 07:51:10;;;;;;;9.53;8.00;;;9.30;99.90;;;;;;5072232;28;20551;-48
2022/01/02 07:53:37;;;;;;;10.60;8.90;;;9.40;99.90;;;;;;5078696;28;20486;-46
2022/01/02 07:56:04;;;;;;;7.43;6.10;;;9.30;99.90;;;;;;5076825;28;20492;-46
2022/01/02 07:58:30;;;;;;;6.97;5.60;;;9.50;99.90;;;;;;5074052;28;20493;-46
2022/01/02 08:00:57;;;;;;;5.20;4.70;;;9.50;99.90;;;;;;5071102;28;20838;-46
2022/01/02 08:03:25;;;;;;;7.10;6.47;;;9.50;99.90;;;;;;5077171;28;20976;-47
2022/01/02 08:05:52;;;;;;;10.37;8.07;;;9.50;99.90;;;;;;5072272;28;20875;-47
2022/01/02 08:08:18;;;;;;;7.53;6.27;;;9.50;99.90;;;;;;5071204;28;20492;-47
2022/01/02 08:10:45;;;;;;;7.77;6.30;;;9.60;99.90;;;;;;5070752;27;20576;-47
2022/01/02 08:13:12;;;;;;;9.20;7.97;;;9.60;99.90;;;;;;5099142;27;20470;-48
2022/01/02 08:15:38;;;;;;;7.80;6.90;;;9.60;99.90;;;;;;5100576;27;21031;-47
2022/01/02 08:18:05;;;;;;;7.97;7.07;;;9.60;99.90;;;;;;5074499;28;20475;-47
2022/01/02 08:20:33;;;;;;;10.10;7.10;;;9.70;99.90;;;;;;5073743;28;20529;-47
2022/01/02 08:23:00;;;;;;;12.23;7.47;;;9.70;99.90;;;;;;5071889;28;20487;-47
2022/01/02 08:25:27;;;;;;;7.37;6.67;;;9.70;99.90;;;;;;5074249;28;20524;-47
2022/01/02 08:27:54;;;;;;;7.07;6.37;;;9.70;99.90;;;;;;5070345;28;20484;-48
2022/01/02 08:30:21;;;;;;;10.70;7.90;;;9.80;99.90;;;;;;5073157;28;20481;-47
2022/01/02 08:32:48;;;;;;;11.33;7.67;;;9.80;99.90;;;;;;5068877;28;20487;-47
2022/01/02 08:35:15;;;;;;;8.03;6.83;;;9.70;99.90;;;;;;5070503;28;21006;-49
2022/01/02 08:37:43;;;;;;;7.17;6.10;;;9.80;99.90;;;;;;5069695;28;20480;-47
2022/01/02 08:40:10;;;;;;;8.60;6.30;;;9.80;99.90;;;;;;5072417;28;20484;-47
2022/01/02 08:42:37;;;;;;;6.50;5.90;;;9.80;99.90;;;;;;5067695;28;21064;-47
2022/01/02 08:45:05;;;;;;;8.27;6.90;;;9.80;99.90;;;;;;5068926;28;20486;-47
2022/01/02 08:47:31;;;;;;;8.37;6.50;;;9.70;99.90;;;;;;5071894;28;20483;-47
2022/01/02 08:49:58;;;;;;;6.97;5.60;;;9.70;99.90;;;;;;5076092;28;20476;-48
2022/01/02 08:52:26;;;;;;;7.27;6.27;;;9.70;99.90;;;;;;5075760;28;20492;-47
2022/01/02 08:54:54;;;;;;;12.03;6.10;;;9.80;99.90;;;;;;5086990;28;20513;-47
2022/01/02 08:57:20;;;;;;;7.97;7.10;;;9.80;99.90;;;;;;5070557;28;20488;-48
2022/01/02 08:59:47;;;;;;;8.23;6.13;;;9.90;99.90;;;;;;5077650;28;20533;-47
2022/01/02 09:02:14;;;;;;;6.93;6.20;;;10.00;99.70;;;;;;5074921;28;21058;-47
2022/01/02 09:04:41;;;;;;;9.27;7.20;;;10.00;99.70;;;;;;5079889;28;20483;-47
2022/01/02 09:07:07;;;;;;;7.27;5.77;;;10.00;99.60;;;;;;5082635;28;20471;-47
2022/01/02 09:09:35;;;;;;;9.83;8.10;;;10.10;99.70;;;;;;5079453;28;20493;-49
2022/01/02 09:12:04;;;;;;;10.33;6.30;;;10.00;99.60;;;;;;5080584;28;20491;-47
2022/01/02 09:14:31;;;;;;;7.03;6.30;;;10.00;99.70;;;;;;5081673;28;20487;-48
2022/01/02 09:16:58;;;;;;;9.27;8.30;;;10.00;99.60;;;;;;5078595;28;20483;-47
2022/01/02 09:19:25;;;;;;;8.60;7.70;;;9.90;99.90;;;;;;5072848;28;20538;-47
2022/01/02 09:21:52;;;;;;;7.43;6.70;;;9.90;99.90;;;;;;5077759;28;20878;-47
2022/01/02 09:24:18;;;;;;;9.07;7.00;;;9.90;99.90;;;;;;5085857;28;20487;-47
2022/01/02 09:26:45;;;;;;;5.87;4.70;;;10.00;99.90;;;;;;5077973;28;20485;-47
2022/01/02 09:29:13;;;;;;;6.87;6.23;;;10.00;99.70;;;;;;5073909;27;20548;-47
2022/01/02 09:31:40;;;;;;;9.00;6.33;;;10.10;99.70;;;;;;5083972;28;20541;-47
2022/01/02 09:34:07;;;;;;;8.87;6.67;;;10.10;99.80;;;;;;5084558;28;20594;-47
2022/01/02 09:36:34;;;;;;;10.77;7.80;;;10.10;99.80;;;;;;5074272;28;20535;-48
2022/01/02 09:39:00;;;;;;;8.13;7.33;;;10.20;99.90;;;;;;5083930;28;20508;-47
2022/01/02 09:41:27;;;;;;;8.03;6.73;;;10.30;99.90;;;;;;5081707;28;20547;-47
2022/01/02 09:43:54;;;;;;;8.77;7.57;;;10.30;99.60;;;;;;5077474;28;20547;-47
2022/01/02 09:46:24;;;;;;;10.67;8.70;;;10.30;99.90;;;;;;5077485;28;20936;-47
2022/01/02 09:48:53;;;;;;;9.23;8.23;;;10.30;99.50;;;;;;5086803;28;20532;-47
2022/01/02 09:51:24;;;;;;;9.43;6.60;;;10.40;99.60;;;;;;5071574;28;20544;-47
2022/01/02 09:53:52;;;;;;;7.13;6.47;;;10.50;99.80;;;;;;5079621;28;20482;-48
2022/01/02 09:56:19;;;;;;;10.40;8.20;;;10.60;99.50;;;;;;5066838;28;20562;-47
2022/01/02 09:58:47;;;;;;;8.53;7.63;;;10.60;99.70;;;;;;5065634;28;20567;-48
2022/01/02 10:01:16;;;;;;;8.57;7.60;;;10.60;99.70;;;;;;5085247;28;20526;-48
2022/01/02 10:03:46;;;;;;;7.30;6.47;;;10.70;99.90;;;;;;5080662;28;20483;-47
2022/01/02 10:06:13;;;;;;;9.57;7.37;;;10.80;99.90;;;;;;5078903;27;20479;-48
2022/01/02 10:08:40;;;;;;;12.00;7.00;;;10.80;99.80;;;;;;5076574;27;20485;-47
2022/01/02 10:11:15;;;;;;;8.47;6.57;;;10.80;99.90;;;;;;5073935;28;20552;-47
2022/01/02 10:13:45;;;;;;;8.10;6.60;;;10.90;99.90;;;;;;5092226;28;20488;-47
2022/01/02 10:16:31;;;;;;;7.60;6.90;;;10.90;99.90;;;;;;5077827;28;21566;-47
2022/01/02 10:19:00;;;;;;;9.40;6.73;;;10.90;99.70;;;;;;5076628;28;20475;-48
2022/01/02 10:21:32;;;;;;;9.40;7.97;;;10.90;99.50;;;;;;5075562;28;20507;-48
2022/01/02 10:24:19;;;;;;;17.93;8.93;;;10.80;99.40;;;;;;5079089;28;20538;-47
2022/01/02 10:27:11;;;;;;;5.30;4.57;;;10.80;99.40;;;;;;5073018;28;20468;-47
2022/01/02 10:29:44;;;;;;;7.80;7.00;;;10.80;99.40;;;;;;5063646;28;20558;-47
2022/01/02 10:32:28;;;;;;;12.43;6.67;;;10.80;99.20;;;;;;5063886;28;20484;-48
2022/01/02 10:35:14;;;;;;;5.17;3.90;;;10.90;99.30;;;;;;5080502;28;20485;-46
2022/01/02 10:37:41;;;;;;;8.93;5.37;;;10.90;99.40;;;;;;5063791;28;20472;-47
2022/01/02 10:40:28;;;;;;;8.90;4.93;;;10.90;99.50;;;;;;5077056;28;20985;-48
2022/01/02 10:42:55;;;;;;;6.47;5.53;;;10.90;98.80;;;;;;5073240;28;20489;-46
2022/01/02 10:45:38;;;;;;;6.10;5.50;;;10.90;98.60;;;;;;5069898;28;20544;-47
2022/01/02 10:48:08;;;;;;;5.67;4.80;;;10.90;98.80;;;;;;5071354;28;20465;-47
2022/01/02 10:50:36;;;;;;;7.07;6.37;;;10.90;98.40;;;;;;5077238;28;20464;-47
2022/01/02 10:53:17;;;;;;;7.50;4.90;;;10.90;98.30;;;;;;5064009;28;20485;-47
2022/01/02 10:55:46;;;;;;;8.20;5.00;;;11.00;98.50;;;;;;5067087;28;20479;-47
2022/01/02 10:58:13;;;;;;;5.40;4.90;;;11.00;98.50;;;;;;5072284;28;20486;-47
2022/01/02 11:00:40;;;;;;;9.33;6.77;;;11.00;98.50;;;;;;5084569;27;20504;-46
2022/01/02 11:03:08;;;;;;;5.37;4.67;;;11.00;98.50;;;;;;5063467;28;20564;-47
2022/01/02 11:05:37;;;;;;;7.93;5.20;;;10.90;98.80;;;;;;5072727;28;20533;-51
2022/01/02 11:08:05;;;;;;;5.00;4.20;;;11.00;98.50;;;;;;5084918;28;20944;-47
2022/01/02 11:10:35;;;;;;;5.97;3.90;;;11.10;99.00;;;;;;5074846;28;20489;-47
2022/01/02 11:13:04;;;;;;;6.77;5.70;;;11.10;98.50;;;;;;5079439;28;20490;-47
2022/01/02 11:15:31;;;;;;;6.40;5.63;;;11.10;98.30;;;;;;5071086;28;20493;-47
2022/01/02 11:17:58;;;;;;;6.07;3.90;;;11.00;98.30;;;;;;5065099;28;20550;-47
2022/01/02 11:20:27;;;;;;;6.00;4.33;;;11.10;98.00;;;;;;5073230;28;20493;-47
2022/01/02 11:23:05;;;;;;;4.70;4.30;;;11.20;98.00;;;;;;5070848;28;20481;-55
2022/01/02 11:25:38;;;;;;;11.53;5.43;;;11.20;98.00;;;;;;5070924;28;20478;-48
2022/01/02 11:28:09;;;;;;;7.57;5.37;;;11.30;98.00;;;;;;5092552;27;20479;-47
2022/01/02 11:30:41;;;;;;;6.57;5.87;;;11.40;97.90;;;;;;5076002;28;20542;-47
2022/01/02 11:33:10;;;;;;;7.63;5.00;;;11.50;97.80;;;;;;5072919;28;20496;-47
2022/01/02 11:35:39;;;;;;;5.17;4.67;;;11.60;98.20;;;;;;5071862;28;20492;-47
2022/01/02 11:38:08;;;;;;;5.70;5.17;;;11.60;98.20;;;;;;5096881;27;20485;-47
2022/01/02 11:40:57;;;;;;;4.27;3.87;;;11.70;98.20;;;;;;5075067;28;20493;-47
2022/01/02 11:43:53;;;;;;;6.90;5.83;;;11.70;97.80;;;;;;5066463;28;20473;-47
2022/01/02 11:46:22;;;;;;;6.30;4.60;;;11.80;97.90;;;;;;5073341;28;20569;-46
2022/01/02 11:49:15;;;;;;;5.30;4.27;;;11.90;97.50;;;;;;5079201;28;20569;-47
2022/01/02 11:52:10;;;;;;;9.40;5.40;;;12.00;97.60;;;;;;5067903;28;20488;-47
2022/01/02 11:54:50;;;;;;;8.83;5.07;;;12.00;97.50;;;;;;5076379;28;20481;-47
2022/01/02 11:57:53;;;;;;;5.30;4.50;;;12.00;97.30;;;;;;5067928;28;20475;-47
2022/01/02 12:00:41;;;;;;;5.37;4.80;;;11.90;96.90;;;;;;5073470;28;20481;-47
2022/01/02 12:03:51;;;;;;;5.00;4.50;;;12.00;97.00;;;;;;5069765;28;20474;-48
2022/01/02 12:06:34;;;;;;;3.87;3.13;;;12.00;97.30;;;;;;5072674;28;20881;-47
2022/01/02 12:09:04;;;;;;;6.43;4.93;;;11.90;97.00;;;;;;5076494;28;21308;-47
2022/01/02 12:11:45;;;;;;;7.03;6.20;;;11.90;97.00;;;;;;5076573;28;20482;-47
2022/01/02 12:14:19;;;;;;;9.93;5.10;;;11.90;97.00;;;;;;5073423;28;20486;-47
2022/01/02 12:16:56;;;;;;;5.23;4.30;;;11.90;97.60;;;;;;5078538;28;20577;-47
2022/01/02 12:19:25;;;;;;;6.43;4.23;;;12.00;97.50;;;;;;5076154;28;20479;-47
2022/01/02 12:22:13;;;;;;;8.47;5.17;;;12.10;97.10;;;;;;5081774;28;20597;-47
2022/01/02 12:24:41;;;;;;;6.20;4.70;;;12.30;97.00;;;;;;5061374;28;20565;-47
2022/01/02 12:27:12;;;;;;;4.47;4.07;;;12.40;97.20;;;;;;5069167;28;20463;-47
2022/01/02 12:29:40;;;;;;;9.80;4.03;;;12.40;96.60;;;;;;5070011;28;20526;-47
2022/01/02 12:32:07;;;;;;;5.90;3.93;;;12.50;96.60;;;;;;5080101;28;20864;-47
2022/01/02 12:34:36;;;;;;;4.30;3.90;;;12.60;96.50;;;;;;5079302;28;20514;-48
2022/01/02 12:37:04;;;;;;;12.80;6.17;;;12.70;96.40;;;;;;5078682;28;20493;-48
2022/01/02 12:39:32;;;;;;;7.33;3.63;;;12.70;96.30;;;;;;5077375;28;20481;-47
2022/01/02 12:42:04;;;;;;;4.83;4.07;;;12.80;96.30;;;;;;5075718;28;20549;-47
2022/01/02 12:44:33;;;;;;;7.53;5.70;;;12.90;96.20;;;;;;5086392;28;20876;-48
2022/01/02 12:47:01;;;;;;;4.63;3.90;;;13.00;96.70;;;;;;5065361;28;20524;-48
2022/01/02 12:49:30;;;;;;;6.60;4.50;;;13.10;96.30;;;;;;5095327;27;20593;-47
2022/01/02 12:52:01;;;;;;;6.70;4.03;;;13.20;96.20;;;;;;5077249;28;20893;-48
2022/01/02 12:54:30;;;;;;;7.57;6.00;;;13.20;95.80;;;;;;5077441;28;20480;-49
2022/01/02 12:56:58;;;;;;;11.30;4.80;;;13.20;96.30;;;;;;5077938;28;20488;-48